sensor_id;sensor_type;location;lat;lon;timestamp;P1;durP1;ratioP1;P2;durP2;ratioP2
3601;SDS011;1815;50.950;6.920;2023-01-29T00:02:17;35.63;;;23.67;;
3601;SDS011;1815;50.950;6.920;2023-01-29T00:04:43;39.50;;;25.13;;
3601;SDS011;1815;50.950;6.920;2023-01-29T00:07:09;39.63;;;26.73;;
3601;SDS011;1815;50.950;6.920;2023-01-29T00:09:35;38.73;;;26.23;;
3601;SDS011;1815;50.950;6.920;2023-01-29T00:12:01;36.63;;;25.00;;
3601;SDS011;1815;50.950;6.920;2023-01-29T00:14:26;39.47;;;24.27;;
3601;SDS011;1815;50.950;6.920;2023-01-29T00:16:52;41.63;;;24.20;;
3601;SDS011;1815;50.950;6.920;2023-01-29T00:19:18;35.85;;;23.20;;
3601;SDS011;1815;50.950;6.920;2023-01-29T00:21:44;34.10;;;22.53;;
3601;SDS011;1815;50.950;6.920;2023-01-29T00:24:11;39.78;;;25.33;;
3601;SDS011;1815;50.950;6.920;2023-01-29T00:26:37;35.10;;;23.80;;
3601;SDS011;1815;50.950;6.920;2023-01-29T00:29:06;36.63;;;22.80;;
3601;SDS011;1815;50.950;6.920;2023-01-29T00:31:32;40.43;;;25.17;;
3601;SDS011;1815;50.950;6.920;2023-01-29T00:33:58;37.78;;;22.05;;
3601;SDS011;1815;50.950;6.920;2023-01-29T00:36:25;36.40;;;22.70;;
3601;SDS011;1815;50.950;6.920;2023-01-29T00:38:57;42.72;;;23.33;;
3601;SDS011;1815;50.950;6.920;2023-01-29T00:41:28;34.65;;;22.50;;
3601;SDS011;1815;50.950;6.920;2023-01-29T00:44:13;36.33;;;22.08;;
3601;SDS011;1815;50.950;6.920;2023-01-29T00:46:58;32.25;;;21.50;;
3601;SDS011;1815;50.950;6.920;2023-01-29T00:49:24;31.83;;;21.43;;
3601;SDS011;1815;50.950;6.920;2023-01-29T00:51:50;30.23;;;20.13;;
3601;SDS011;1815;50.950;6.920;2023-01-29T00:54:35;37.63;;;22.88;;
3601;SDS011;1815;50.950;6.920;2023-01-29T00:57:01;32.28;;;20.50;;
3601;SDS011;1815;50.950;6.920;2023-01-29T00:59:28;33.78;;;21.25;;
3601;SDS011;1815;50.950;6.920;2023-01-29T01:01:54;32.00;;;21.60;;
3601;SDS011;1815;50.950;6.920;2023-01-29T01:04:39;35.30;;;21.17;;
3601;SDS011;1815;50.950;6.920;2023-01-29T01:07:05;36.77;;;22.03;;
3601;SDS011;1815;50.950;6.920;2023-01-29T01:09:30;35.25;;;21.77;;
3601;SDS011;1815;50.950;6.920;2023-01-29T01:12:14;39.65;;;23.02;;
3601;SDS011;1815;50.950;6.920;2023-01-29T01:14:40;35.73;;;22.40;;
3601;SDS011;1815;50.950;6.920;2023-01-29T01:17:07;33.97;;;21.85;;
3601;SDS011;1815;50.950;6.920;2023-01-29T01:19:34;33.92;;;21.17;;
3601;SDS011;1815;50.950;6.920;2023-01-29T01:22:00;33.13;;;21.70;;
3601;SDS011;1815;50.950;6.920;2023-01-29T01:24:26;31.30;;;21.10;;
3601;SDS011;1815;50.950;6.920;2023-01-29T01:26:52;32.30;;;20.23;;
3601;SDS011;1815;50.950;6.920;2023-01-29T01:29:18;32.47;;;21.40;;
3601;SDS011;1815;50.950;6.920;2023-01-29T01:31:43;36.27;;;20.83;;
3601;SDS011;1815;50.950;6.920;2023-01-29T01:34:09;32.60;;;22.23;;
3601;SDS011;1815;50.950;6.920;2023-01-29T01:36:35;33.67;;;20.80;;
3601;SDS011;1815;50.950;6.920;2023-01-29T01:39:01;35.60;;;22.73;;
3601;SDS011;1815;50.950;6.920;2023-01-29T01:41:28;32.97;;;20.70;;
3601;SDS011;1815;50.950;6.920;2023-01-29T01:43:58;28.67;;;19.90;;
3601;SDS011;1815;50.950;6.920;2023-01-29T01:46:30;33.83;;;21.65;;
3601;SDS011;1815;50.950;6.920;2023-01-29T01:49:08;35.75;;;21.63;;
3601;SDS011;1815;50.950;6.920;2023-01-29T01:51:42;34.65;;;22.15;;
3601;SDS011;1815;50.950;6.920;2023-01-29T01:54:13;31.70;;;21.75;;
3601;SDS011;1815;50.950;6.920;2023-01-29T01:56:56;35.38;;;24.30;;
3601;SDS011;1815;50.950;6.920;2023-01-29T01:59:33;38.22;;;23.65;;
3601;SDS011;1815;50.950;6.920;2023-01-29T02:02:02;35.97;;;21.75;;
3601;SDS011;1815;50.950;6.920;2023-01-29T02:04:48;36.13;;;21.73;;
3601;SDS011;1815;50.950;6.920;2023-01-29T02:07:33;40.97;;;22.98;;
3601;SDS011;1815;50.950;6.920;2023-01-29T02:10:18;36.05;;;22.73;;
3601;SDS011;1815;50.950;6.920;2023-01-29T02:12:45;37.40;;;23.63;;
3601;SDS011;1815;50.950;6.920;2023-01-29T02:15:14;38.03;;;22.65;;
3601;SDS011;1815;50.950;6.920;2023-01-29T02:17:40;34.50;;;24.20;;
3601;SDS011;1815;50.950;6.920;2023-01-29T02:30:40;33.72;;;20.00;;
3601;SDS011;1815;50.950;6.920;2023-01-29T02:33:25;36.60;;;23.83;;
3601;SDS011;1815;50.950;6.920;2023-01-29T02:39:00;36.20;;;22.67;;
3601;SDS011;1815;50.950;6.920;2023-01-29T02:41:41;42.00;;;22.85;;
3601;SDS011;1815;50.950;6.920;2023-01-29T02:46:45;34.70;;;22.60;;
3601;SDS011;1815;50.950;6.920;2023-01-29T02:51:58;34.15;;;22.45;;
3601;SDS011;1815;50.950;6.920;2023-01-29T02:54:43;37.42;;;22.85;;
3601;SDS011;1815;50.950;6.920;2023-01-29T03:02:24;36.45;;;22.25;;
3601;SDS011;1815;50.950;6.920;2023-01-29T03:04:58;33.80;;;21.70;;
3601;SDS011;1815;50.950;6.920;2023-01-29T03:07:29;34.83;;;23.05;;
3601;SDS011;1815;50.950;6.920;2023-01-29T03:10:21;34.42;;;20.10;;
3601;SDS011;1815;50.950;6.920;2023-01-29T03:12:57;32.10;;;20.90;;
3601;SDS011;1815;50.950;6.920;2023-01-29T03:15:51;31.80;;;22.27;;
3601;SDS011;1815;50.950;6.920;2023-01-29T03:18:47;36.47;;;21.98;;
3601;SDS011;1815;50.950;6.920;2023-01-29T03:21:26;31.75;;;20.35;;
3601;SDS011;1815;50.950;6.920;2023-01-29T03:24:21;35.25;;;22.08;;
3601;SDS011;1815;50.950;6.920;2023-01-29T03:27:15;35.00;;;21.23;;
3601;SDS011;1815;50.950;6.920;2023-01-29T03:30:04;36.50;;;21.45;;
3601;SDS011;1815;50.950;6.920;2023-01-29T03:33:10;40.03;;;23.13;;
3601;SDS011;1815;50.950;6.920;2023-01-29T03:35:55;32.53;;;21.67;;
3601;SDS011;1815;50.950;6.920;2023-01-29T03:38:27;35.10;;;21.60;;
3601;SDS011;1815;50.950;6.920;2023-01-29T03:44:16;35.40;;;22.67;;
3601;SDS011;1815;50.950;6.920;2023-01-29T03:47:02;29.85;;;19.95;;
3601;SDS011;1815;50.950;6.920;2023-01-29T03:52:39;31.48;;;20.55;;
3601;SDS011;1815;50.950;6.920;2023-01-29T04:05:49;29.65;;;20.23;;
3601;SDS011;1815;50.950;6.920;2023-01-29T04:08:28;34.72;;;21.73;;
3601;SDS011;1815;50.950;6.920;2023-01-29T04:11:00;30.98;;;20.83;;
3601;SDS011;1815;50.950;6.920;2023-01-29T04:13:37;37.28;;;22.95;;
3601;SDS011;1815;50.950;6.920;2023-01-29T04:16:05;30.80;;;21.05;;
3601;SDS011;1815;50.950;6.920;2023-01-29T04:18:57;29.45;;;20.73;;
3601;SDS011;1815;50.950;6.920;2023-01-29T04:21:28;29.52;;;20.33;;
3601;SDS011;1815;50.950;6.920;2023-01-29T04:23:58;32.80;;;20.42;;
3601;SDS011;1815;50.950;6.920;2023-01-29T04:26:28;32.63;;;20.70;;
3601;SDS011;1815;50.950;6.920;2023-01-29T04:34:46;33.65;;;23.20;;
3601;SDS011;1815;50.950;6.920;2023-01-29T04:43:06;36.92;;;22.15;;
3601;SDS011;1815;50.950;6.920;2023-01-29T04:45:51;30.40;;;20.48;;
3601;SDS011;1815;50.950;6.920;2023-01-29T04:48:29;33.22;;;20.90;;
3601;SDS011;1815;50.950;6.920;2023-01-29T04:56:47;34.78;;;22.08;;
3601;SDS011;1815;50.950;6.920;2023-01-29T04:59:23;35.88;;;21.55;;
3601;SDS011;1815;50.950;6.920;2023-01-29T05:02:00;35.30;;;22.83;;
3601;SDS011;1815;50.950;6.920;2023-01-29T05:04:26;32.75;;;21.17;;
3601;SDS011;1815;50.950;6.920;2023-01-29T05:06:56;35.25;;;20.65;;
3601;SDS011;1815;50.950;6.920;2023-01-29T05:09:26;42.92;;;25.15;;
3601;SDS011;1815;50.950;6.920;2023-01-29T05:11:52;37.60;;;24.85;;
3601;SDS011;1815;50.950;6.920;2023-01-29T05:14:19;34.90;;;22.33;;
3601;SDS011;1815;50.950;6.920;2023-01-29T05:16:49;38.53;;;24.85;;
3601;SDS011;1815;50.950;6.920;2023-01-29T05:19:17;36.92;;;24.10;;
3601;SDS011;1815;50.950;6.920;2023-01-29T05:21:44;41.72;;;26.65;;
3601;SDS011;1815;50.950;6.920;2023-01-29T05:24:19;33.85;;;21.88;;
3601;SDS011;1815;50.950;6.920;2023-01-29T05:26:47;43.45;;;26.75;;
3601;SDS011;1815;50.950;6.920;2023-01-29T05:29:33;38.75;;;25.75;;
3601;SDS011;1815;50.950;6.920;2023-01-29T05:31:59;40.00;;;24.97;;
3601;SDS011;1815;50.950;6.920;2023-01-29T05:34:24;41.73;;;25.33;;
3601;SDS011;1815;50.950;6.920;2023-01-29T05:36:50;42.60;;;24.87;;
3601;SDS011;1815;50.950;6.920;2023-01-29T05:39:16;41.87;;;27.00;;
3601;SDS011;1815;50.950;6.920;2023-01-29T05:41:42;34.37;;;23.80;;
3601;SDS011;1815;50.950;6.920;2023-01-29T05:44:10;44.57;;;26.00;;
3601;SDS011;1815;50.950;6.920;2023-01-29T05:46:36;39.85;;;27.35;;
3601;SDS011;1815;50.950;6.920;2023-01-29T05:49:03;33.55;;;22.45;;
3601;SDS011;1815;50.950;6.920;2023-01-29T05:51:30;35.05;;;21.83;;
3601;SDS011;1815;50.950;6.920;2023-01-29T05:53:55;41.00;;;25.73;;
3601;SDS011;1815;50.950;6.920;2023-01-29T05:56:24;39.20;;;24.25;;
3601;SDS011;1815;50.950;6.920;2023-01-29T05:58:50;34.03;;;21.90;;
3601;SDS011;1815;50.950;6.920;2023-01-29T06:01:18;31.90;;;19.48;;
3601;SDS011;1815;50.950;6.920;2023-01-29T06:03:46;31.35;;;19.38;;
3601;SDS011;1815;50.950;6.920;2023-01-29T06:06:11;33.57;;;19.70;;
3601;SDS011;1815;50.950;6.920;2023-01-29T06:08:38;32.08;;;23.65;;
3601;SDS011;1815;50.950;6.920;2023-01-29T06:11:06;32.40;;;21.40;;
3601;SDS011;1815;50.950;6.920;2023-01-29T06:13:32;31.80;;;20.52;;
3601;SDS011;1815;50.950;6.920;2023-01-29T06:15:58;31.77;;;20.70;;
3601;SDS011;1815;50.950;6.920;2023-01-29T06:18:24;30.40;;;19.20;;
3601;SDS011;1815;50.950;6.920;2023-01-29T06:20:50;41.60;;;23.67;;
3601;SDS011;1815;50.950;6.920;2023-01-29T06:23:16;43.67;;;26.80;;
3601;SDS011;1815;50.950;6.920;2023-01-29T06:25:41;31.07;;;20.57;;
3601;SDS011;1815;50.950;6.920;2023-01-29T06:28:07;35.23;;;22.07;;
3601;SDS011;1815;50.950;6.920;2023-01-29T06:30:33;27.37;;;18.37;;
3601;SDS011;1815;50.950;6.920;2023-01-29T06:32:59;34.47;;;22.23;;
3601;SDS011;1815;50.950;6.920;2023-01-29T06:35:27;34.83;;;21.52;;
3601;SDS011;1815;50.950;6.920;2023-01-29T06:37:53;32.03;;;21.75;;
3601;SDS011;1815;50.950;6.920;2023-01-29T06:40:18;35.13;;;22.83;;
3601;SDS011;1815;50.950;6.920;2023-01-29T06:42:44;31.73;;;21.30;;
3601;SDS011;1815;50.950;6.920;2023-01-29T06:45:10;29.57;;;18.77;;
3601;SDS011;1815;50.950;6.920;2023-01-29T06:47:36;33.90;;;19.33;;
3601;SDS011;1815;50.950;6.920;2023-01-29T06:50:01;32.23;;;19.60;;
3601;SDS011;1815;50.950;6.920;2023-01-29T06:52:27;30.33;;;17.40;;
3601;SDS011;1815;50.950;6.920;2023-01-29T06:54:56;35.28;;;20.83;;
3601;SDS011;1815;50.950;6.920;2023-01-29T06:57:22;32.95;;;18.85;;
3601;SDS011;1815;50.950;6.920;2023-01-29T06:59:48;31.43;;;19.80;;
3601;SDS011;1815;50.950;6.920;2023-01-29T07:02:14;38.07;;;24.00;;
3601;SDS011;1815;50.950;6.920;2023-01-29T07:04:40;34.75;;;22.05;;
3601;SDS011;1815;50.950;6.920;2023-01-29T07:07:07;38.40;;;22.58;;
3601;SDS011;1815;50.950;6.920;2023-01-29T07:09:40;36.10;;;22.52;;
3601;SDS011;1815;50.950;6.920;2023-01-29T07:12:07;34.63;;;22.60;;
3601;SDS011;1815;50.950;6.920;2023-01-29T07:14:34;31.15;;;20.67;;
3601;SDS011;1815;50.950;6.920;2023-01-29T07:16:59;34.83;;;21.37;;
3601;SDS011;1815;50.950;6.920;2023-01-29T07:19:26;32.47;;;20.20;;
3601;SDS011;1815;50.950;6.920;2023-01-29T07:21:52;28.80;;;19.23;;
3601;SDS011;1815;50.950;6.920;2023-01-29T07:24:18;31.17;;;18.03;;
3601;SDS011;1815;50.950;6.920;2023-01-29T07:26:44;30.67;;;18.43;;
3601;SDS011;1815;50.950;6.920;2023-01-29T07:29:10;32.13;;;20.45;;
3601;SDS011;1815;50.950;6.920;2023-01-29T07:31:35;32.30;;;20.83;;
3601;SDS011;1815;50.950;6.920;2023-01-29T07:34:01;27.10;;;19.57;;
3601;SDS011;1815;50.950;6.920;2023-01-29T07:36:27;34.55;;;22.83;;
3601;SDS011;1815;50.950;6.920;2023-01-29T07:38:53;35.42;;;23.88;;
3601;SDS011;1815;50.950;6.920;2023-01-29T07:41:19;36.87;;;22.27;;
3601;SDS011;1815;50.950;6.920;2023-01-29T07:43:46;32.72;;;20.88;;
3601;SDS011;1815;50.950;6.920;2023-01-29T07:46:12;40.92;;;26.13;;
3601;SDS011;1815;50.950;6.920;2023-01-29T07:48:37;35.07;;;23.50;;
3601;SDS011;1815;50.950;6.920;2023-01-29T07:51:03;36.90;;;23.30;;
3601;SDS011;1815;50.950;6.920;2023-01-29T07:53:29;36.97;;;24.83;;
3601;SDS011;1815;50.950;6.920;2023-01-29T07:55:55;36.90;;;24.27;;
3601;SDS011;1815;50.950;6.920;2023-01-29T07:58:21;34.83;;;22.80;;
3601;SDS011;1815;50.950;6.920;2023-01-29T08:00:46;37.10;;;24.40;;
3601;SDS011;1815;50.950;6.920;2023-01-29T08:03:13;36.60;;;22.40;;
3601;SDS011;1815;50.950;6.920;2023-01-29T08:05:41;31.33;;;20.00;;
3601;SDS011;1815;50.950;6.920;2023-01-29T08:08:07;36.25;;;22.70;;
3601;SDS011;1815;50.950;6.920;2023-01-29T08:10:34;35.20;;;22.63;;
3601;SDS011;1815;50.950;6.920;2023-01-29T08:13:00;33.20;;;20.75;;
3601;SDS011;1815;50.950;6.920;2023-01-29T08:15:27;30.65;;;23.00;;
3601;SDS011;1815;50.950;6.920;2023-01-29T08:17:53;38.75;;;23.65;;
3601;SDS011;1815;50.950;6.920;2023-01-29T08:20:19;37.10;;;22.80;;
3601;SDS011;1815;50.950;6.920;2023-01-29T08:22:45;33.83;;;20.63;;
3601;SDS011;1815;50.950;6.920;2023-01-29T08:25:11;28.10;;;18.70;;
3601;SDS011;1815;50.950;6.920;2023-01-29T08:27:38;32.08;;;22.00;;
3601;SDS011;1815;50.950;6.920;2023-01-29T08:30:05;29.83;;;20.88;;
3601;SDS011;1815;50.950;6.920;2023-01-29T08:32:31;43.35;;;26.50;;
3601;SDS011;1815;50.950;6.920;2023-01-29T08:34:57;30.67;;;21.10;;
3601;SDS011;1815;50.950;6.920;2023-01-29T08:37:23;31.83;;;20.17;;
3601;SDS011;1815;50.950;6.920;2023-01-29T08:39:49;29.33;;;19.30;;
3601;SDS011;1815;50.950;6.920;2023-01-29T08:42:14;29.60;;;19.63;;
3601;SDS011;1815;50.950;6.920;2023-01-29T08:44:40;34.27;;;21.53;;
3601;SDS011;1815;50.950;6.920;2023-01-29T08:47:05;31.77;;;20.53;;
3601;SDS011;1815;50.950;6.920;2023-01-29T08:49:32;33.75;;;21.10;;
3601;SDS011;1815;50.950;6.920;2023-01-29T08:51:57;29.37;;;20.07;;
3601;SDS011;1815;50.950;6.920;2023-01-29T08:54:23;31.33;;;21.17;;
3601;SDS011;1815;50.950;6.920;2023-01-29T08:56:49;29.83;;;19.70;;
3601;SDS011;1815;50.950;6.920;2023-01-29T08:59:15;28.92;;;19.90;;
3601;SDS011;1815;50.950;6.920;2023-01-29T09:01:41;33.90;;;22.43;;
3601;SDS011;1815;50.950;6.920;2023-01-29T09:04:06;28.77;;;20.23;;
3601;SDS011;1815;50.950;6.920;2023-01-29T09:06:32;33.17;;;22.03;;
3601;SDS011;1815;50.950;6.920;2023-01-29T09:08:58;35.45;;;23.98;;
3601;SDS011;1815;50.950;6.920;2023-01-29T09:11:24;39.07;;;24.90;;
3601;SDS011;1815;50.950;6.920;2023-01-29T09:13:50;31.20;;;21.47;;
3601;SDS011;1815;50.950;6.920;2023-01-29T09:16:16;35.57;;;22.27;;
3601;SDS011;1815;50.950;6.920;2023-01-29T09:18:42;33.80;;;21.60;;
3601;SDS011;1815;50.950;6.920;2023-01-29T09:21:07;28.60;;;18.50;;
3601;SDS011;1815;50.950;6.920;2023-01-29T09:23:33;31.20;;;21.27;;
3601;SDS011;1815;50.950;6.920;2023-01-29T09:25:59;25.70;;;16.73;;
3601;SDS011;1815;50.950;6.920;2023-01-29T09:28:25;28.73;;;19.33;;
3601;SDS011;1815;50.950;6.920;2023-01-29T09:30:50;28.63;;;19.00;;
3601;SDS011;1815;50.950;6.920;2023-01-29T09:33:16;31.70;;;20.80;;
3601;SDS011;1815;50.950;6.920;2023-01-29T09:35:42;30.83;;;20.75;;
3601;SDS011;1815;50.950;6.920;2023-01-29T09:38:10;24.63;;;18.05;;
3601;SDS011;1815;50.950;6.920;2023-01-29T09:40:42;29.70;;;18.40;;
3601;SDS011;1815;50.950;6.920;2023-01-29T09:45:59;31.10;;;21.13;;
3601;SDS011;1815;50.950;6.920;2023-01-29T09:48:29;32.92;;;23.00;;
3601;SDS011;1815;50.950;6.920;2023-01-29T09:50:57;32.28;;;22.05;;
3601;SDS011;1815;50.950;6.920;2023-01-29T09:53:39;32.10;;;22.63;;
3601;SDS011;1815;50.950;6.920;2023-01-29T09:56:20;35.65;;;24.48;;
3601;SDS011;1815;50.950;6.920;2023-01-29T09:58:46;33.40;;;21.27;;
3601;SDS011;1815;50.950;6.920;2023-01-29T10:01:17;32.20;;;20.80;;
3601;SDS011;1815;50.950;6.920;2023-01-29T10:04:06;30.70;;;21.25;;
3601;SDS011;1815;50.950;6.920;2023-01-29T10:10:01;34.13;;;22.33;;
3601;SDS011;1815;50.950;6.920;2023-01-29T10:18:05;40.80;;;24.75;;
3601;SDS011;1815;50.950;6.920;2023-01-29T10:23:40;32.83;;;22.88;;
3601;SDS011;1815;50.950;6.920;2023-01-29T10:26:14;29.88;;;21.92;;
3601;SDS011;1815;50.950;6.920;2023-01-29T10:28:43;34.10;;;24.20;;
3601;SDS011;1815;50.950;6.920;2023-01-29T10:31:23;32.45;;;22.15;;
3601;SDS011;1815;50.950;6.920;2023-01-29T10:33:57;31.80;;;21.63;;
3601;SDS011;1815;50.950;6.920;2023-01-29T10:36:39;30.45;;;20.98;;
3601;SDS011;1815;50.950;6.920;2023-01-29T10:39:14;35.13;;;25.02;;
3601;SDS011;1815;50.950;6.920;2023-01-29T10:42:01;32.38;;;23.33;;
3601;SDS011;1815;50.950;6.920;2023-01-29T10:47:34;27.73;;;20.80;;
3601;SDS011;1815;50.950;6.920;2023-01-29T11:02:41;34.88;;;23.35;;
3601;SDS011;1815;50.950;6.920;2023-01-29T11:05:18;37.80;;;23.65;;
3601;SDS011;1815;50.950;6.920;2023-01-29T11:07:48;32.92;;;21.52;;
3601;SDS011;1815;50.950;6.920;2023-01-29T11:10:54;30.55;;;21.98;;
3601;SDS011;1815;50.950;6.920;2023-01-29T11:13:35;35.78;;;23.23;;
3601;SDS011;1815;50.950;6.920;2023-01-29T11:16:22;27.80;;;18.52;;
3601;SDS011;1815;50.950;6.920;2023-01-29T11:21:15;29.73;;;21.30;;
3601;SDS011;1815;50.950;6.920;2023-01-29T11:23:41;35.20;;;23.53;;
3601;SDS011;1815;50.950;6.920;2023-01-29T11:26:07;38.70;;;25.33;;
3601;SDS011;1815;50.950;6.920;2023-01-29T11:28:43;36.10;;;27.10;;
3601;SDS011;1815;50.950;6.920;2023-01-29T11:31:17;32.35;;;22.38;;
3601;SDS011;1815;50.950;6.920;2023-01-29T11:33:51;33.88;;;21.38;;
3601;SDS011;1815;50.950;6.920;2023-01-29T11:41:56;36.10;;;24.83;;
3601;SDS011;1815;50.950;6.920;2023-01-29T11:44:30;41.63;;;27.48;;
3601;SDS011;1815;50.950;6.920;2023-01-29T11:47:16;31.13;;;22.55;;
3601;SDS011;1815;50.950;6.920;2023-01-29T11:49:49;32.35;;;22.30;;
3601;SDS011;1815;50.950;6.920;2023-01-29T11:52:19;31.85;;;22.20;;
3601;SDS011;1815;50.950;6.920;2023-01-29T11:57:53;37.30;;;25.65;;
3601;SDS011;1815;50.950;6.920;2023-01-29T12:00:25;29.85;;;21.55;;
3601;SDS011;1815;50.950;6.920;2023-01-29T12:03:00;34.42;;;24.40;;
3601;SDS011;1815;50.950;6.920;2023-01-29T12:05:36;31.73;;;23.02;;
3601;SDS011;1815;50.950;6.920;2023-01-29T12:08:09;37.65;;;24.88;;
3601;SDS011;1815;50.950;6.920;2023-01-29T12:10:41;32.85;;;22.50;;
3601;SDS011;1815;50.950;6.920;2023-01-29T12:15:45;30.73;;;22.05;;
3601;SDS011;1815;50.950;6.920;2023-01-29T12:18:14;33.80;;;22.75;;
3601;SDS011;1815;50.950;6.920;2023-01-29T12:21:01;32.35;;;23.08;;
3601;SDS011;1815;50.950;6.920;2023-01-29T12:23:37;32.17;;;21.75;;
3601;SDS011;1815;50.950;6.920;2023-01-29T12:26:06;29.00;;;22.27;;
3601;SDS011;1815;50.950;6.920;2023-01-29T12:32:00;30.58;;;21.45;;
3601;SDS011;1815;50.950;6.920;2023-01-29T12:34:49;32.28;;;21.13;;
3601;SDS011;1815;50.950;6.920;2023-01-29T12:37:21;34.63;;;25.40;;
3601;SDS011;1815;50.950;6.920;2023-01-29T12:39:59;36.40;;;23.70;;
3601;SDS011;1815;50.950;6.920;2023-01-29T12:42:26;33.95;;;24.42;;
3601;SDS011;1815;50.950;6.920;2023-01-29T12:44:53;34.40;;;23.73;;
3601;SDS011;1815;50.950;6.920;2023-01-29T12:47:30;33.90;;;22.65;;
3601;SDS011;1815;50.950;6.920;2023-01-29T12:50:12;37.20;;;24.80;;
3601;SDS011;1815;50.950;6.920;2023-01-29T12:58:22;31.27;;;21.70;;
3601;SDS011;1815;50.950;6.920;2023-01-29T13:00:58;33.30;;;24.88;;
3601;SDS011;1815;50.950;6.920;2023-01-29T13:03:32;34.33;;;24.20;;
3601;SDS011;1815;50.950;6.920;2023-01-29T13:06:30;28.58;;;21.17;;
3601;SDS011;1815;50.950;6.920;2023-01-29T13:09:02;25.70;;;20.73;;
3601;SDS011;1815;50.950;6.920;2023-01-29T13:11:36;27.30;;;19.52;;
3601;SDS011;1815;50.950;6.920;2023-01-29T13:14:13;29.42;;;19.55;;
3601;SDS011;1815;50.950;6.920;2023-01-29T13:16:44;24.08;;;19.58;;
3601;SDS011;1815;50.950;6.920;2023-01-29T13:19:23;30.35;;;20.13;;
3601;SDS011;1815;50.950;6.920;2023-01-29T13:21:56;26.20;;;18.33;;
3601;SDS011;1815;50.950;6.920;2023-01-29T13:24:28;29.65;;;21.13;;
3601;SDS011;1815;50.950;6.920;2023-01-29T13:27:03;31.38;;;21.55;;
3601;SDS011;1815;50.950;6.920;2023-01-29T13:29:29;32.90;;;21.70;;
3601;SDS011;1815;50.950;6.920;2023-01-29T13:31:59;30.58;;;21.25;;
3601;SDS011;1815;50.950;6.920;2023-01-29T13:34:34;29.23;;;20.30;;
3601;SDS011;1815;50.950;6.920;2023-01-29T13:37:11;29.73;;;21.05;;
3601;SDS011;1815;50.950;6.920;2023-01-29T13:39:45;25.30;;;19.15;;
3601;SDS011;1815;50.950;6.920;2023-01-29T13:42:21;27.02;;;18.65;;
3601;SDS011;1815;50.950;6.920;2023-01-29T13:45:01;27.00;;;19.45;;
3601;SDS011;1815;50.950;6.920;2023-01-29T13:47:32;23.73;;;18.23;;
3601;SDS011;1815;50.950;6.920;2023-01-29T13:50:02;29.60;;;21.42;;
3601;SDS011;1815;50.950;6.920;2023-01-29T13:55:01;30.58;;;21.75;;
3601;SDS011;1815;50.950;6.920;2023-01-29T14:07:55;23.15;;;15.52;;
3601;SDS011;1815;50.950;6.920;2023-01-29T14:10:30;21.17;;;15.93;;
3601;SDS011;1815;50.950;6.920;2023-01-29T14:18:24;26.58;;;19.00;;
3601;SDS011;1815;50.950;6.920;2023-01-29T14:21:33;24.17;;;15.93;;
3601;SDS011;1815;50.950;6.920;2023-01-29T14:28:55;24.05;;;15.55;;
3601;SDS011;1815;50.950;6.920;2023-01-29T14:31:51;16.60;;;13.73;;
3601;SDS011;1815;50.950;6.920;2023-01-29T14:34:20;18.92;;;13.85;;
3601;SDS011;1815;50.950;6.920;2023-01-29T14:36:53;18.80;;;14.55;;
3601;SDS011;1815;50.950;6.920;2023-01-29T14:39:23;18.15;;;13.48;;
3601;SDS011;1815;50.950;6.920;2023-01-29T14:41:58;20.35;;;13.63;;
3601;SDS011;1815;50.950;6.920;2023-01-29T14:44:45;18.27;;;14.43;;
3601;SDS011;1815;50.950;6.920;2023-01-29T14:49:56;18.90;;;13.50;;
3601;SDS011;1815;50.950;6.920;2023-01-29T14:52:39;20.38;;;13.73;;
3601;SDS011;1815;50.950;6.920;2023-01-29T14:55:14;19.75;;;13.27;;
3601;SDS011;1815;50.950;6.920;2023-01-29T14:57:51;15.10;;;11.75;;
3601;SDS011;1815;50.950;6.920;2023-01-29T15:02:52;13.15;;;10.25;;
3601;SDS011;1815;50.950;6.920;2023-01-29T15:05:21;13.93;;;10.65;;
3601;SDS011;1815;50.950;6.920;2023-01-29T15:10:33;14.00;;;9.15;;
3601;SDS011;1815;50.950;6.920;2023-01-29T15:16:10;10.77;;;7.60;;
3601;SDS011;1815;50.950;6.920;2023-01-29T15:18:42;12.23;;;8.43;;
3601;SDS011;1815;50.950;6.920;2023-01-29T15:21:15;9.70;;;5.60;;
3601;SDS011;1815;50.950;6.920;2023-01-29T15:23:42;9.05;;;6.10;;
3601;SDS011;1815;50.950;6.920;2023-01-29T15:26:09;9.00;;;5.82;;
3601;SDS011;1815;50.950;6.920;2023-01-29T15:28:39;6.72;;;4.47;;
3601;SDS011;1815;50.950;6.920;2023-01-29T15:31:06;6.73;;;4.00;;
3601;SDS011;1815;50.950;6.920;2023-01-29T15:33:37;7.53;;;4.93;;
3601;SDS011;1815;50.950;6.920;2023-01-29T15:36:10;5.93;;;4.15;;
3601;SDS011;1815;50.950;6.920;2023-01-29T15:38:49;5.75;;;4.22;;
3601;SDS011;1815;50.950;6.920;2023-01-29T15:41:34;6.28;;;3.33;;
3601;SDS011;1815;50.950;6.920;2023-01-29T15:44:00;4.63;;;3.10;;
3601;SDS011;1815;50.950;6.920;2023-01-29T15:46:33;5.75;;;3.67;;
3601;SDS011;1815;50.950;6.920;2023-01-29T15:49:05;6.70;;;3.85;;
3601;SDS011;1815;50.950;6.920;2023-01-29T15:51:32;5.80;;;4.40;;
3601;SDS011;1815;50.950;6.920;2023-01-29T15:54:00;7.85;;;4.05;;
3601;SDS011;1815;50.950;6.920;2023-01-29T15:56:45;5.30;;;3.78;;
3601;SDS011;1815;50.950;6.920;2023-01-29T15:59:17;5.95;;;4.07;;
3601;SDS011;1815;50.950;6.920;2023-01-29T16:01:48;5.95;;;3.53;;
3601;SDS011;1815;50.950;6.920;2023-01-29T16:04:19;4.50;;;3.80;;
3601;SDS011;1815;50.950;6.920;2023-01-29T16:06:54;5.10;;;4.15;;
3601;SDS011;1815;50.950;6.920;2023-01-29T16:09:22;7.47;;;4.30;;
3601;SDS011;1815;50.950;6.920;2023-01-29T16:11:50;5.05;;;3.70;;
3601;SDS011;1815;50.950;6.920;2023-01-29T16:14:19;6.20;;;3.85;;
3601;SDS011;1815;50.950;6.920;2023-01-29T16:16:47;5.15;;;3.13;;
3601;SDS011;1815;50.950;6.920;2023-01-29T16:19:26;4.85;;;3.45;;
3601;SDS011;1815;50.950;6.920;2023-01-29T16:22:02;5.40;;;3.67;;
3601;SDS011;1815;50.950;6.920;2023-01-29T16:24:30;6.18;;;4.30;;
3601;SDS011;1815;50.950;6.920;2023-01-29T16:27:00;4.53;;;3.83;;
3601;SDS011;1815;50.950;6.920;2023-01-29T16:29:32;7.13;;;4.00;;
3601;SDS011;1815;50.950;6.920;2023-01-29T16:31:59;5.53;;;4.25;;
3601;SDS011;1815;50.950;6.920;2023-01-29T16:37:20;7.03;;;5.03;;
3601;SDS011;1815;50.950;6.920;2023-01-29T16:39:55;6.35;;;4.28;;
3601;SDS011;1815;50.950;6.920;2023-01-29T16:42:26;6.07;;;4.30;;
3601;SDS011;1815;50.950;6.920;2023-01-29T16:53:11;6.78;;;3.28;;
3601;SDS011;1815;50.950;6.920;2023-01-29T16:55:42;5.28;;;3.30;;
3601;SDS011;1815;50.950;6.920;2023-01-29T16:58:11;5.85;;;3.72;;
3601;SDS011;1815;50.950;6.920;2023-01-29T17:00:50;4.82;;;3.92;;
3601;SDS011;1815;50.950;6.920;2023-01-29T17:03:18;6.00;;;4.50;;
3601;SDS011;1815;50.950;6.920;2023-01-29T17:05:45;6.03;;;3.67;;
3601;SDS011;1815;50.950;6.920;2023-01-29T17:08:16;4.82;;;4.32;;
3601;SDS011;1815;50.950;6.920;2023-01-29T17:11:03;6.80;;;4.50;;
3601;SDS011;1815;50.950;6.920;2023-01-29T17:13:38;8.98;;;4.75;;
3601;SDS011;1815;50.950;6.920;2023-01-29T17:18:47;7.53;;;5.78;;
3601;SDS011;1815;50.950;6.920;2023-01-29T17:21:13;8.20;;;5.47;;
3601;SDS011;1815;50.950;6.920;2023-01-29T17:23:39;6.13;;;5.00;;
3601;SDS011;1815;50.950;6.920;2023-01-29T17:26:10;7.20;;;4.30;;
3601;SDS011;1815;50.950;6.920;2023-01-29T17:28:37;6.70;;;4.65;;
3601;SDS011;1815;50.950;6.920;2023-01-29T17:31:03;7.77;;;5.70;;
3601;SDS011;1815;50.950;6.920;2023-01-29T17:33:29;6.88;;;4.45;;
3601;SDS011;1815;50.950;6.920;2023-01-29T17:35:55;8.10;;;5.50;;
3601;SDS011;1815;50.950;6.920;2023-01-29T17:38:21;7.60;;;5.83;;
3601;SDS011;1815;50.950;6.920;2023-01-29T17:43:24;7.43;;;5.88;;
3601;SDS011;1815;50.950;6.920;2023-01-29T17:45:49;7.37;;;4.93;;
3601;SDS011;1815;50.950;6.920;2023-01-29T17:48:20;6.80;;;5.20;;
3601;SDS011;1815;50.950;6.920;2023-01-29T17:50:47;7.45;;;5.60;;
3601;SDS011;1815;50.950;6.920;2023-01-29T17:53:16;8.18;;;5.57;;
3601;SDS011;1815;50.950;6.920;2023-01-29T17:55:43;7.32;;;5.65;;
3601;SDS011;1815;50.950;6.920;2023-01-29T17:58:12;9.37;;;6.60;;
3601;SDS011;1815;50.950;6.920;2023-01-29T18:00:43;9.02;;;6.03;;